Terminal Aerodrome Forecast
Issued by NWS

Home | Current Version | Previous Version | Text Only | Print | Product List | Glossary On
Versions: 1 2 3 4 5 6 7 8 9 10 11 12 13 14 15 16 17 18 19 20 21 22 23 24 25 26 27 28 29 30 31 32 33 34 35 36 37 38 39 40 41 42 43 44 45 46 47 48 49 50
632
FTUS43 KMKX 301741
TAFUES
TAF
KUES 301741Z 3018/0118 08011KT 6SM -RA OVC035
     FM301900 08013G22KT 3SM RA OVC035
     FM302200 06014G22KT 2SM RA OVC025
     FM010000 05013G21KT 3SM RA OVC015
     FM010300 05011KT 5SM RA OVC008
     FM010600 05012KT P6SM VCSH OVC008
     FM011100 03010G18KT P6SM VCSH OVC003
     FM011700 04012G21KT P6SM OVC008=

USA.gov is the U.S. government's official web portal to all federal, state and local government web resources and services.